createdAt,value
2022-08-10T03:47:59.131Z,16.80
2022-08-10T03:50:03.901Z,16.70
2022-08-10T03:52:24.773Z,16.70
2022-08-10T03:54:27.824Z,16.70
2022-08-10T03:56:32.371Z,16.70
2022-08-10T03:58:34.891Z,16.60
2022-08-10T04:00:37.798Z,16.60
2022-08-10T04:02:48.188Z,16.60
2022-08-10T04:04:50.291Z,16.60
2022-08-10T04:06:57.628Z,16.70
2022-08-10T04:08:59.473Z,16.70
2022-08-10T04:11:01.202Z,16.70
2022-08-10T04:13:02.962Z,16.60
2022-08-10T04:15:05.128Z,16.60
2022-08-10T04:17:09.680Z,16.60
2022-08-10T04:19:18.520Z,16.50
2022-08-10T04:21:36.714Z,16.50
2022-08-10T04:23:43.388Z,16.40
2022-08-10T04:25:45.571Z,16.40
2022-08-10T04:27:48.976Z,16.40
2022-08-10T04:29:51.632Z,16.40
2022-08-10T04:31:53.678Z,16.40
2022-08-10T04:33:57.501Z,16.40
2022-08-10T04:36:00.592Z,16.30
2022-08-10T04:38:04.012Z,16.40
2022-08-10T04:40:06.351Z,16.30
2022-08-10T04:42:28.141Z,16.30
2022-08-10T04:44:29.961Z,16.30
2022-08-10T04:46:56.409Z,16.30
2022-08-10T04:48:59.782Z,16.30
2022-08-10T04:51:04.505Z,16.40
2022-08-10T04:53:06.319Z,16.40
2022-08-10T04:55:09.100Z,16.40
2022-08-10T04:57:11.007Z,16.40
2022-08-10T04:59:12.952Z,16.40
2022-08-10T05:01:15.337Z,16.40
2022-08-10T05:03:17.179Z,16.50
2022-08-10T05:05:19.225Z,16.60
2022-08-10T05:07:21.048Z,16.60
2022-08-10T05:09:25.171Z,16.70
2022-08-10T05:11:27.093Z,16.70
2022-08-10T05:13:29.478Z,16.80
2022-08-10T05:15:31.476Z,16.80
2022-08-10T05:17:34.648Z,16.90
2022-08-10T05:20:02.333Z,16.90
2022-08-10T05:22:04.907Z,17.10
2022-08-10T05:24:07.075Z,17.10
2022-08-10T05:26:09.219Z,17.20
2022-08-10T05:28:11.438Z,17.20
2022-08-10T05:30:18.388Z,17.30
2022-08-10T05:32:20.161Z,17.30
2022-08-10T05:34:26.610Z,17.40
2022-08-10T05:36:29.402Z,17.40
2022-08-10T05:38:32.548Z,17.50
2022-08-10T05:40:37.630Z,17.50
2022-08-10T05:42:41.187Z,17.60
2022-08-10T05:44:43.010Z,17.60
2022-08-10T05:46:44.744Z,17.70
2022-08-10T05:48:59.281Z,17.70
2022-08-10T05:51:02.752Z,17.80
2022-08-10T05:53:39.070Z,17.90
2022-08-10T05:55:30.660Z,17.90
2022-08-10T05:57:33.504Z,18.00
2022-08-10T06:00:33.688Z,18.10
2022-08-10T06:02:32.922Z,18.10
2022-08-10T06:04:30.281Z,18.20
2022-08-10T06:06:34.139Z,18.30
2022-08-10T06:08:38.162Z,18.30
2022-08-10T06:12:23.161Z,18.40
2022-08-10T06:13:30.451Z,18.40
2022-08-10T06:15:51.395Z,18.50
2022-08-10T06:17:58.997Z,18.50
2022-08-10T06:20:04.694Z,18.70
2022-08-10T06:22:07.112Z,18.70
2022-08-10T06:24:11.174Z,18.90
2022-08-10T06:26:17.383Z,18.90
2022-08-10T06:28:23.164Z,19.00
2022-08-10T06:30:27.106Z,19.10
2022-08-10T06:32:30.830Z,19.10
2022-08-10T06:34:40.032Z,19.20
2022-08-10T06:36:44.077Z,19.20
2022-08-10T06:38:46.675Z,19.30
2022-08-10T06:40:49.113Z,19.40
2022-08-10T06:42:52.633Z,19.50
2022-08-10T06:45:18.656Z,19.60
2022-08-10T06:47:24.103Z,19.80
2022-08-10T06:49:25.976Z,19.90
2022-08-10T06:51:34.288Z,20.00
2022-08-10T06:53:52.974Z,20.20
2022-08-10T06:56:03.661Z,20.50
2022-08-10T06:58:06.944Z,20.80
2022-08-10T07:00:20.074Z,21.10
2022-08-10T07:02:28.162Z,21.80
2022-08-10T07:04:47.111Z,23.10
2022-08-10T07:06:49.672Z,24.70
2022-08-10T07:08:52.979Z,26.30
2022-08-10T07:10:55.381Z,27.30
2022-08-10T07:13:00.919Z,28.20
2022-08-10T07:15:04.253Z,29.20
2022-08-10T07:17:16.109Z,29.90
2022-08-10T07:19:19.713Z,30.20
2022-08-10T07:21:22.702Z,30.30
2022-08-10T07:23:56.757Z,30.60
2022-08-10T07:25:49.216Z,30.80
2022-08-10T07:27:59.636Z,31.10
2022-08-10T07:30:03.770Z,31.40
2022-08-10T07:32:06.956Z,31.70
2022-08-10T07:34:09.779Z,31.80
2022-08-10T07:36:12.417Z,32.10
2022-08-10T07:38:21.051Z,32.40
2022-08-10T07:40:23.860Z,32.40
2022-08-10T07:42:27.350Z,32.80
2022-08-10T07:44:34.757Z,32.40
2022-08-10T07:46:40.988Z,32.40
2022-08-10T07:48:50.919Z,32.60
2022-08-10T07:51:00.129Z,32.60
2022-08-10T07:53:04.445Z,32.90
2022-08-10T07:55:10.070Z,32.80
2022-08-10T07:57:30.689Z,32.60
2022-08-10T07:59:39.375Z,32.20
2022-08-10T08:01:50.350Z,32.00
2022-08-10T08:04:10.905Z,32.20
2022-08-10T08:06:16.429Z,32.60
2022-08-10T08:10:19.159Z,33.20
2022-08-10T08:12:21.185Z,33.50
2022-08-10T08:14:23.820Z,33.50
2022-08-10T08:16:26.031Z,33.40
2022-08-10T08:18:29.175Z,33.60
2022-08-10T08:20:32.063Z,33.70
2022-08-10T08:24:06.195Z,33.70
2022-08-10T08:24:59.256Z,33.70
2022-08-10T08:27:04.966Z,34.10
2022-08-10T08:29:10.758Z,34.00
2022-08-10T08:31:16.910Z,34.30
2022-08-10T08:33:41.905Z,34.50
2022-08-10T08:35:44.109Z,34.50
2022-08-10T08:38:33.738Z,34.80
2022-08-10T08:40:18.395Z,35.20
2022-08-10T08:42:49.479Z,35.70
2022-08-10T08:45:07.833Z,35.70
2022-08-10T08:48:03.233Z,35.80
2022-08-10T08:50:07.930Z,35.50
2022-08-10T08:52:25.777Z,35.50
2022-08-10T08:55:03.879Z,35.20
2022-08-10T08:57:46.267Z,35.00
2022-08-10T08:59:57.036Z,34.70
2022-08-10T09:02:18.172Z,35.00
2022-08-10T09:04:52.461Z,34.90
2022-08-10T09:07:07.250Z,34.80
2022-08-10T09:09:53.475Z,34.80
2022-08-10T09:12:22.674Z,34.90
2022-08-10T09:14:59.728Z,34.80
2022-08-10T09:17:35.481Z,35.10
2022-08-10T09:19:57.687Z,35.20
2022-08-10T09:22:19.648Z,34.90
2022-08-10T09:24:43.257Z,34.30
2022-08-10T09:26:52.857Z,34.00
2022-08-10T09:29:11.644Z,34.10
2022-08-10T09:31:22.383Z,34.50
2022-08-10T09:36:21.604Z,34.70
2022-08-10T09:36:33.398Z,34.70
2022-08-10T09:40:05.802Z,34.60
2022-08-10T09:41:57.376Z,34.50
2022-08-10T09:44:08.053Z,34.70
2022-08-10T09:46:21.938Z,34.50
2022-08-10T09:48:43.493Z,34.20
2022-08-10T09:54:14.125Z,33.90
2022-08-10T09:56:29.450Z,33.90
2022-08-10T09:58:42.408Z,34.30
2022-08-10T10:01:02.790Z,34.70
2022-08-10T10:03:26.316Z,35.00
2022-08-10T10:05:51.317Z,34.90
2022-08-10T10:08:05.846Z,34.80
2022-08-10T10:10:13.371Z,35.00
2022-08-10T10:12:25.597Z,35.10
2022-08-10T10:15:24.824Z,34.90
2022-08-10T10:18:04.268Z,35.50
2022-08-10T10:20:25.929Z,35.80
2022-08-10T10:22:50.426Z,35.80
2022-08-10T10:25:23.245Z,35.40
2022-08-10T10:27:48.202Z,35.40
2022-08-10T10:30:03.638Z,35.50
2022-08-10T10:32:32.143Z,35.70
2022-08-10T10:34:53.866Z,36.10
2022-08-10T10:36:58.533Z,36.20
2022-08-10T10:39:01.875Z,36.70
2022-08-10T10:41:55.872Z,36.60
2022-08-10T10:44:27.773Z,36.40
2022-08-10T10:46:51.544Z,36.40
2022-08-10T10:49:11.296Z,36.40
2022-08-10T10:51:16.221Z,36.20
2022-08-10T10:53:44.209Z,35.70
2022-08-10T10:56:15.071Z,35.20
2022-08-10T10:58:20.406Z,35.40
2022-08-10T11:00:29.412Z,35.20
2022-08-10T11:02:45.181Z,35.10
2022-08-10T11:05:01.754Z,35.30
2022-08-10T11:07:31.939Z,35.40
2022-08-10T11:10:03.468Z,35.40
2022-08-10T11:12:33.971Z,35.50
2022-08-10T11:14:44.397Z,35.50
2022-08-10T11:17:00.251Z,35.30
2022-08-10T11:19:17.309Z,35.00
2022-08-10T11:21:51.780Z,34.50
2022-08-10T11:24:48.979Z,34.00
2022-08-10T11:27:24.681Z,33.80
2022-08-10T11:29:36.925Z,33.90
2022-08-10T11:31:46.453Z,34.20
2022-08-10T11:36:40.004Z,34.70
2022-08-10T11:39:14.292Z,34.70
2022-08-10T11:42:11.816Z,34.30
2022-08-10T11:44:26.493Z,34.10
2022-08-10T11:46:33.600Z,33.50
2022-08-10T11:48:53.602Z,33.30
2022-08-10T11:51:04.632Z,33.70
2022-08-10T11:53:09.604Z,33.90
2022-08-10T11:55:20.527Z,34.10
2022-08-10T11:57:54.780Z,34.40
2022-08-10T11:59:59.256Z,34.40
2022-08-10T12:02:02.876Z,34.40
2022-08-10T12:04:12.286Z,34.40
2022-08-10T12:06:28.937Z,33.90
2022-08-10T12:10:06.567Z,34.10
2022-08-10T12:10:59.030Z,34.40
2022-08-10T12:13:24.017Z,34.40
2022-08-10T12:15:48.758Z,34.50
2022-08-10T12:17:55.867Z,34.50
2022-08-10T12:20:10.818Z,34.60
2022-08-10T12:22:16.862Z,34.70
2022-08-10T12:24:30.861Z,34.60
2022-08-10T12:26:40.060Z,34.60
2022-08-10T12:29:13.163Z,34.30
2022-08-10T12:31:17.096Z,34.10
2022-08-10T12:34:03.564Z,34.30
2022-08-10T12:36:22.997Z,34.40
2022-08-10T12:38:46.538Z,34.60
2022-08-10T12:41:00.542Z,34.60
2022-08-10T12:44:05.514Z,34.60
2022-08-10T12:45:42.277Z,34.90
2022-08-10T12:47:48.400Z,35.40
2022-08-10T12:50:30.014Z,35.50
2022-08-10T12:52:32.846Z,35.50
2022-08-10T12:54:36.723Z,35.60
2022-08-10T12:56:51.500Z,35.20
2022-08-10T12:58:58.767Z,34.90
2022-08-10T13:01:16.737Z,34.90
2022-08-10T13:04:21.767Z,34.90
2022-08-10T13:06:02.442Z,35.20
2022-08-10T13:08:27.901Z,35.70
2022-08-10T13:10:30.097Z,35.90
2022-08-10T13:12:40.304Z,36.10
2022-08-10T13:15:43.294Z,35.40
2022-08-10T13:17:40.075Z,35.30
2022-08-10T13:19:55.037Z,35.80
2022-08-10T13:22:02.768Z,36.40
2022-08-10T13:24:13.505Z,37.00
2022-08-10T13:26:19.269Z,36.40
2022-08-10T13:28:35.470Z,35.90
2022-08-10T13:30:40.945Z,35.90
2022-08-10T13:32:49.620Z,35.90
2022-08-10T13:34:52.492Z,35.70
2022-08-10T13:37:01.301Z,35.90
2022-08-10T13:39:04.619Z,36.10
2022-08-10T13:41:08.733Z,36.40
2022-08-10T13:43:10.836Z,36.30
2022-08-10T13:45:20.457Z,35.70
2022-08-10T13:47:48.169Z,35.80
2022-08-10T13:50:10.771Z,35.90
2022-08-10T13:52:21.220Z,35.70
2022-08-10T13:54:27.338Z,35.80
2022-08-10T13:56:31.814Z,35.80
2022-08-10T13:58:38.317Z,36.00
2022-08-10T14:00:41.460Z,35.80
2022-08-10T14:03:10.584Z,35.70
2022-08-10T14:05:13.702Z,35.70
2022-08-10T14:07:16.975Z,35.80
2022-08-10T14:09:26.504Z,35.90
2022-08-10T14:11:30.472Z,35.80
2022-08-10T14:13:37.487Z,35.80
2022-08-10T14:15:40.020Z,36.00
2022-08-10T14:17:45.075Z,36.00
2022-08-10T14:19:51.516Z,36.10
2022-08-10T14:22:01.578Z,36.20
2022-08-10T14:24:03.511Z,36.20
2022-08-10T14:26:09.462Z,36.10
2022-08-10T14:28:12.107Z,36.00
2022-08-10T14:30:17.728Z,36.10
2022-08-10T14:32:23.539Z,36.10
2022-08-10T14:36:15.251Z,36.30
2022-08-10T14:37:06.119Z,36.30
2022-08-10T14:39:12.092Z,36.40
2022-08-10T14:42:02.544Z,36.40
2022-08-10T14:43:42.095Z,36.10
2022-08-10T14:45:48.478Z,35.80
2022-08-10T14:48:03.759Z,35.80
2022-08-10T14:50:07.772Z,35.70
2022-08-10T14:52:10.914Z,35.60
2022-08-10T14:54:15.784Z,35.60
2022-08-10T14:56:26.443Z,35.40
2022-08-10T14:58:33.185Z,35.30
2022-08-10T15:00:43.022Z,35.30
2022-08-10T15:02:53.425Z,35.30
2022-08-10T15:05:00.020Z,34.90
2022-08-10T15:07:12.354Z,34.90
2022-08-10T15:09:19.823Z,34.80
2022-08-10T15:12:15.347Z,34.80
2022-08-10T15:14:14.801Z,34.80
2022-08-10T15:16:15.281Z,34.50
2022-08-10T15:18:17.645Z,34.50
2022-08-10T15:20:22.626Z,34.40
2022-08-10T15:22:41.748Z,34.30
2022-08-10T15:25:01.044Z,34.00
2022-08-10T15:27:08.714Z,33.90
2022-08-10T15:29:24.172Z,34.00
2022-08-10T15:31:30.900Z,33.80
2022-08-10T15:34:04.486Z,33.70
2022-08-10T15:36:27.572Z,33.80
2022-08-10T15:38:44.537Z,33.90
2022-08-10T15:40:56.757Z,33.90
2022-08-10T15:43:25.150Z,33.80
2022-08-10T15:45:28.197Z,33.60
2022-08-10T15:47:45.065Z,33.60
2022-08-10T15:50:09.266Z,33.40
2022-08-10T15:53:00.127Z,33.20
2022-08-10T15:54:42.919Z,33.00
2022-08-10T15:57:02.699Z,32.80
2022-08-10T15:59:14.466Z,32.60
2022-08-10T16:02:14.717Z,32.60
2022-08-10T16:04:10.854Z,32.70
2022-08-10T16:06:24.878Z,32.70
2022-08-10T16:08:35.133Z,32.90
2022-08-10T16:11:03.545Z,33.10
2022-08-10T16:13:50.807Z,32.90
2022-08-10T16:15:31.929Z,32.70
2022-08-10T16:17:54.689Z,32.70
2022-08-10T16:20:00.237Z,32.60
2022-08-10T16:22:36.146Z,32.70
2022-08-10T16:24:32.613Z,32.70
2022-08-10T16:26:41.268Z,32.40
2022-08-10T16:28:55.982Z,32.30
2022-08-10T16:30:59.092Z,32.20
2022-08-10T16:33:08.629Z,32.20
2022-08-10T16:35:13.574Z,32.30
2022-08-10T16:37:17.045Z,32.10
2022-08-10T16:40:00.366Z,32.00
2022-08-10T16:42:14.158Z,31.70
2022-08-10T16:44:22.704Z,31.70
2022-08-10T16:46:25.977Z,31.60
2022-08-10T16:48:50.205Z,31.50
2022-08-10T16:50:55.475Z,31.10
2022-08-10T16:53:01.866Z,30.90
2022-08-10T16:55:24.328Z,30.50
2022-08-10T16:57:42.668Z,30.10
2022-08-10T16:59:46.369Z,29.80
2022-08-10T17:01:51.559Z,29.60
2022-08-10T17:04:06.815Z,29.60
2022-08-10T17:06:15.978Z,29.70
2022-08-10T17:08:20.331Z,29.70
2022-08-10T17:10:22.928Z,29.80
2022-08-10T17:12:30.262Z,29.90
2022-08-10T17:14:32.172Z,29.90
2022-08-10T17:16:40.604Z,30.00
2022-08-10T17:18:46.718Z,29.80
2022-08-10T17:20:51.252Z,29.90
2022-08-10T17:22:57.047Z,30.00
2022-08-10T17:25:19.144Z,29.90
2022-08-10T17:28:03.969Z,29.90
2022-08-10T17:29:50.730Z,29.80
2022-08-10T17:32:06.705Z,29.70
2022-08-10T17:34:24.489Z,29.60
2022-08-10T17:36:36.776Z,29.30
2022-08-10T17:38:39.412Z,29.00
2022-08-10T17:40:56.325Z,28.70
2022-08-10T17:42:59.292Z,28.30
2022-08-10T17:45:03.057Z,27.80
2022-08-10T17:47:11.241Z,27.30
2022-08-10T17:49:18.215Z,26.90
2022-08-10T17:51:25.346Z,26.50
2022-08-10T17:53:43.334Z,26.20
2022-08-10T17:55:48.217Z,25.90
2022-08-10T17:57:50.424Z,25.60
2022-08-10T18:00:07.615Z,25.40
2022-08-10T18:02:23.122Z,25.10
2022-08-10T18:04:27.384Z,24.90
2022-08-10T18:06:31.032Z,24.80
2022-08-10T18:08:39.315Z,24.60
2022-08-10T18:10:42.962Z,24.40
2022-08-10T18:12:51.107Z,24.20
2022-08-10T18:14:55.150Z,24.10
2022-08-10T18:16:58.891Z,23.90
2022-08-10T18:19:11.733Z,23.80
2022-08-10T18:21:19.371Z,23.70
2022-08-10T18:23:29.060Z,23.50
2022-08-10T18:25:34.925Z,23.40
2022-08-10T18:27:46.609Z,23.30
2022-08-10T18:30:07.430Z,23.20
2022-08-10T18:32:11.123Z,23.10
2022-08-10T18:34:18.435Z,23.10
2022-08-10T18:36:21.966Z,23.00
2022-08-10T18:38:26.411Z,23.00
2022-08-10T18:40:35.526Z,22.90
2022-08-10T18:42:49.164Z,22.90
2022-08-10T18:45:01.497Z,22.90
2022-08-10T18:47:11.675Z,22.90
2022-08-10T18:49:19.502Z,22.80
2022-08-10T18:51:26.823Z,22.80
2022-08-10T18:53:28.495Z,22.70
2022-08-10T18:55:46.343Z,22.60
2022-08-10T18:58:21.292Z,22.50
2022-08-10T19:00:31.915Z,22.40
2022-08-10T19:03:01.734Z,22.40
2022-08-10T19:05:42.626Z,22.30
2022-08-10T19:08:31.037Z,22.20
2022-08-10T19:10:48.469Z,22.20
2022-08-10T19:13:22.107Z,22.20
2022-08-10T19:15:36.545Z,22.10
2022-08-10T19:18:19.747Z,22.10
2022-08-10T19:20:37.808Z,22.00
2022-08-10T19:23:05.074Z,22.00
2022-08-10T19:26:41.289Z,21.90
2022-08-10T19:28:15.232Z,21.90
2022-08-10T19:30:18.930Z,21.80
2022-08-10T19:32:51.879Z,21.80
2022-08-10T19:35:00.889Z,21.80
2022-08-10T19:37:05.585Z,21.70
2022-08-10T19:39:13.278Z,21.70
2022-08-10T19:41:44.754Z,21.60
2022-08-10T19:44:00.709Z,21.60
2022-08-10T19:46:37.678Z,21.60
2022-08-10T19:49:09.007Z,21.50
2022-08-10T19:51:25.210Z,21.50
2022-08-10T19:53:32.364Z,21.40
2022-08-10T19:56:13.128Z,21.40
2022-08-10T19:58:41.088Z,21.40
2022-08-10T20:01:04.973Z,21.30
2022-08-10T20:03:19.160Z,21.20
2022-08-10T20:05:34.055Z,21.20
2022-08-10T20:07:48.854Z,21.20
2022-08-10T20:10:01.597Z,21.20
2022-08-10T20:12:09.997Z,21.20
2022-08-10T20:14:21.396Z,21.20
2022-08-10T20:16:31.196Z,21.10
2022-08-10T20:19:21.867Z,21.10
2022-08-10T20:21:40.137Z,21.00
2022-08-10T20:24:05.527Z,21.00
2022-08-10T20:26:32.239Z,21.00
2022-08-10T20:29:03.039Z,20.90
2022-08-10T20:31:18.038Z,20.80
2022-08-10T20:33:29.894Z,20.80
2022-08-10T20:35:45.955Z,20.80
2022-08-10T20:38:04.074Z,20.80
2022-08-10T20:40:06.407Z,20.80
2022-08-10T20:42:46.702Z,20.80
2022-08-10T20:45:05.970Z,20.70
2022-08-10T20:47:37.389Z,20.60
2022-08-10T20:50:33.577Z,20.50
2022-08-10T20:52:36.700Z,20.50
2022-08-10T20:54:52.171Z,20.50
2022-08-10T20:57:53.593Z,20.40
2022-08-10T21:00:04.003Z,20.30
2022-08-10T21:02:30.937Z,20.30
2022-08-10T21:04:53.005Z,20.30
2022-08-10T21:07:58.320Z,20.30
2022-08-10T21:10:31.132Z,20.20
2022-08-10T21:13:10.342Z,20.00
2022-08-10T21:16:04.283Z,20.00
2022-08-10T21:18:43.896Z,19.90
2022-08-10T21:21:16.786Z,19.90
2022-08-10T21:23:20.370Z,19.90
2022-08-10T21:25:29.430Z,19.90
2022-08-10T21:27:55.242Z,19.80
2022-08-10T21:30:09.901Z,19.80
2022-08-10T21:32:43.887Z,19.80
2022-08-10T21:35:20.092Z,19.80
2022-08-10T21:37:58.991Z,19.70
2022-08-10T21:40:32.292Z,19.70
2022-08-10T21:43:22.910Z,19.70
2022-08-10T21:46:16.328Z,19.70
2022-08-10T21:48:57.278Z,19.70
2022-08-10T21:52:01.611Z,19.60
2022-08-10T21:54:21.798Z,19.50
2022-08-10T21:56:48.419Z,19.50
